Time;durP1;ratioP1;P1;durP2;ratioP2;P2;SDS_P1;SDS_P2;PMS_P1;PMS_P2;Temp;Humidity;BMP_temperature;BMP_pressure;BME280_temperature;BME280_humidity;BME280_pressure;Samples;Min_cycle;Max_cycle;Signal;HPM_P1;HPM_P2
2021/06/04 00:02:23;;;;;;;8.73;6.03;;;18.90;21.10;;;;;;5021632;28;20120;-65
2021/06/04 00:05:12;;;;;;;9.23;6.18;;;18.80;22.00;;;;;;5009843;28;20128;-66
2021/06/04 00:08:01;;;;;;;6.82;5.85;;;18.80;21.70;;;;;;4994701;28;20056;-66
2021/06/04 00:10:53;;;;;;;9.73;6.15;;;18.80;21.80;;;;;;5021309;28;20052;-65
2021/06/04 00:13:44;;;;;;;8.00;6.03;;;18.80;21.80;;;;;;5017828;28;20046;-65
2021/06/04 00:16:36;;;;;;;6.90;5.63;;;18.80;22.50;;;;;;5025359;28;20505;-64
2021/06/04 00:19:28;;;;;;;7.88;5.95;;;18.60;23.40;;;;;;5023988;28;20041;-65
2021/06/04 00:22:19;;;;;;;8.15;5.32;;;18.50;24.80;;;;;;5017070;28;20045;-66
2021/06/04 00:25:08;;;;;;;6.65;5.38;;;18.40;25.40;;;;;;5024702;28;20411;-64
2021/06/04 00:27:56;;;;;;;7.93;5.93;;;18.30;26.90;;;;;;5025623;28;20140;-65
2021/06/04 00:30:43;;;;;;;7.03;6.28;;;18.30;27.80;;;;;;5023899;28;20049;-64
2021/06/04 00:33:33;;;;;;;7.75;5.57;;;18.30;27.80;;;;;;5025272;28;20164;-65
2021/06/04 00:36:24;;;;;;;7.38;5.68;;;18.20;27.70;;;;;;5025401;28;20068;-65
2021/06/04 00:39:15;;;;;;;6.18;5.07;;;18.20;27.70;;;;;;5025924;28;20041;-66
2021/06/04 00:42:07;;;;;;;8.25;5.63;;;18.10;26.60;;;;;;5005794;28;20425;-66
2021/06/04 00:44:58;;;;;;;6.72;4.85;;;18.00;26.00;;;;;;5026271;28;20072;-65
2021/06/04 00:47:49;;;;;;;8.40;5.85;;;17.90;26.10;;;;;;5002706;28;20096;-66
2021/06/04 00:50:45;;;;;;;9.32;6.00;;;17.90;26.30;;;;;;5011651;28;20049;-66
2021/06/04 00:53:33;;;;;;;6.20;5.20;;;17.90;25.60;;;;;;5022635;28;20143;-66
2021/06/04 00:56:27;;;;;;;6.30;5.50;;;17.90;25.30;;;;;;5010999;28;20184;-65
2021/06/04 00:59:26;;;;;;;6.00;5.40;;;17.80;24.80;;;;;;5022495;28;20056;-65
2021/06/04 01:02:24;;;;;;;7.30;5.43;;;17.80;25.30;;;;;;5001495;28;20048;-65
2021/06/04 01:05:14;;;;;;;7.57;5.73;;;17.80;25.40;;;;;;5031843;28;20549;-65
2021/06/04 01:08:22;;;;;;;7.10;5.32;;;17.80;26.70;;;;;;5013120;28;20045;-65
2021/06/04 01:11:21;;;;;;;7.28;5.45;;;17.80;26.90;;;;;;5028014;28;20091;-66
2021/06/04 01:14:18;;;;;;;6.68;5.30;;;17.80;27.40;;;;;;5029735;28;20522;-65
2021/06/04 01:17:15;;;;;;;6.22;5.50;;;17.60;27.30;;;;;;5013706;28;20061;-65
2021/06/04 01:20:09;;;;;;;8.95;5.40;;;17.60;27.30;;;;;;5027765;28;20401;-65
2021/06/04 01:23:28;;;;;;;5.30;4.80;;;17.50;27.20;;;;;;5008201;28;20134;-65
2021/06/04 01:26:24;;;;;;;7.35;5.45;;;17.40;27.50;;;;;;5013491;28;20045;-66
2021/06/04 01:29:18;;;;;;;7.97;5.60;;;17.40;28.20;;;;;;5016891;28;20045;-65
2021/06/04 01:32:12;;;;;;;6.07;5.32;;;17.50;28.90;;;;;;5009269;28;20068;-65
2021/06/04 01:35:04;;;;;;;8.13;5.15;;;17.50;28.90;;;;;;5014751;28;20048;-65
2021/06/04 01:37:53;;;;;;;6.53;5.20;;;17.50;29.10;;;;;;5012168;28;20508;-64
2021/06/04 01:40:45;;;;;;;5.88;5.28;;;17.40;28.10;;;;;;5011811;28;20061;-64
2021/06/04 01:43:42;;;;;;;11.20;6.22;;;17.40;28.80;;;;;;5027459;28;20042;-65
2021/06/04 01:46:35;;;;;;;6.88;5.65;;;17.40;28.50;;;;;;5014972;28;20045;-65
2021/06/04 01:49:28;;;;;;;8.73;5.93;;;17.40;28.40;;;;;;5015128;28;20041;-65
2021/06/04 01:52:20;;;;;;;8.30;6.20;;;17.40;29.20;;;;;;5006932;28;20045;-64
2021/06/04 01:55:12;;;;;;;8.70;6.75;;;17.50;28.90;;;;;;5026531;28;20056;-65
2021/06/04 01:58:05;;;;;;;9.25;6.90;;;17.60;28.80;;;;;;5037231;28;20416;-65
2021/06/04 02:00:59;;;;;;;9.77;7.18;;;17.70;29.20;;;;;;5011175;28;20049;-65
2021/06/04 02:03:49;;;;;;;9.60;7.57;;;17.60;29.30;;;;;;5030154;28;20408;-65
2021/06/04 02:06:45;;;;;;;11.82;7.40;;;17.60;28.30;;;;;;5025352;28;20093;-63
2021/06/04 02:09:34;;;;;;;7.70;6.55;;;17.60;26.70;;;;;;5024335;28;20056;-65
2021/06/04 02:12:35;;;;;;;6.05;4.70;;;17.70;25.90;;;;;;5008293;28;20045;-65
2021/06/04 02:15:35;;;;;;;5.95;4.82;;;17.50;22.60;;;;;;5013228;28;20049;-64
2021/06/04 02:18:44;;;;;;;6.93;4.82;;;17.50;22.90;;;;;;5013727;28;20520;-65
2021/06/04 02:21:48;;;;;;;7.85;4.65;;;17.50;22.00;;;;;;5006585;28;20064;-65
2021/06/04 02:24:41;;;;;;;7.43;4.70;;;17.30;22.70;;;;;;5026578;28;20135;-66
2021/06/04 02:27:33;;;;;;;5.40;4.72;;;17.50;23.00;;;;;;5011275;28;20049;-64
2021/06/04 02:30:26;;;;;;;5.43;4.63;;;17.50;22.20;;;;;;5027015;28;20037;-65
2021/06/04 02:33:22;;;;;;;5.03;4.25;;;17.50;22.30;;;;;;5008217;28;20378;-66
2021/06/04 02:36:15;;;;;;;6.07;4.70;;;17.60;21.70;;;;;;5027113;28;20045;-66
2021/06/04 02:39:09;;;;;;;5.70;4.85;;;17.60;22.00;;;;;;5027624;28;20042;-65
2021/06/04 02:42:02;;;;;;;6.72;4.50;;;17.60;22.40;;;;;;5006528;28;20174;-66
2021/06/04 02:44:55;;;;;;;6.28;5.25;;;17.50;22.60;;;;;;5028679;28;20038;-64
2021/06/04 02:47:47;;;;;;;7.05;5.60;;;17.40;23.50;;;;;;5012980;28;20508;-66
2021/06/04 02:50:38;;;;;;;6.68;5.20;;;17.40;23.60;;;;;;5010801;28;20041;-65
2021/06/04 02:53:32;;;;;;;5.85;5.18;;;17.30;24.00;;;;;;5007726;28;20412;-66
2021/06/04 02:56:27;;;;;;;7.35;4.72;;;17.30;23.60;;;;;;5016825;28;20324;-66
2021/06/04 02:59:20;;;;;;;6.22;5.32;;;17.40;23.80;;;;;;5010804;28;20057;-66
2021/06/04 03:02:11;;;;;;;6.13;5.43;;;17.40;24.20;;;;;;5022539;28;21387;-66
2021/06/04 03:05:03;;;;;;;7.25;6.30;;;17.40;25.00;;;;;;5026235;28;20049;-66
2021/06/04 03:07:51;;;;;;;9.20;6.65;;;17.30;26.30;;;;;;5026368;28;20120;-65
2021/06/04 03:10:43;;;;;;;8.70;6.25;;;17.30;27.70;;;;;;5026204;28;20128;-66
2021/06/04 03:13:34;;;;;;;10.43;7.05;;;17.40;27.10;;;;;;5023715;28;20049;-65
2021/06/04 03:16:25;;;;;;;9.13;6.78;;;17.40;27.70;;;;;;5011001;28;20045;-65
2021/06/04 03:19:19;;;;;;;8.27;6.70;;;17.50;27.20;;;;;;5026686;28;20132;-65
2021/06/04 03:22:11;;;;;;;9.25;6.65;;;17.50;27.80;;;;;;5006838;28;20105;-65
2021/06/04 03:25:10;;;;;;;7.82;7.13;;;17.40;29.90;;;;;;5012335;28;20052;-65
2021/06/04 03:27:59;;;;;;;10.32;7.53;;;17.50;30.00;;;;;;5007578;28;20049;-65
2021/06/04 03:30:51;;;;;;;9.88;6.60;;;17.40;30.70;;;;;;5007399;28;20132;-65
2021/06/04 03:33:41;;;;;;;8.65;7.05;;;17.40;31.30;;;;;;5008770;28;20511;-65
2021/06/04 03:36:35;;;;;;;7.90;7.00;;;17.50;31.40;;;;;;5011685;28;20056;-65
2021/06/04 03:39:28;;;;;;;10.15;7.15;;;17.50;32.00;;;;;;5025926;28;20052;-65
2021/06/04 03:42:21;;;;;;;7.75;6.95;;;17.50;33.00;;;;;;5033534;28;21104;-65
2021/06/04 03:45:16;;;;;;;12.15;7.07;;;17.40;33.70;;;;;;5014203;28;20447;-65
2021/06/04 03:48:07;;;;;;;9.18;7.00;;;17.50;33.70;;;;;;5034438;28;20045;-65
2021/06/04 03:50:58;;;;;;;8.13;6.50;;;17.60;32.90;;;;;;5021573;28;20049;-66
2021/06/04 03:53:46;;;;;;;8.80;7.55;;;17.50;31.60;;;;;;5023790;28;20041;-65
2021/06/04 03:56:36;;;;;;;7.03;6.32;;;17.50;32.90;;;;;;5030235;28;20171;-65
2021/06/04 03:59:24;;;;;;;8.82;6.28;;;17.60;32.50;;;;;;5024340;28;20127;-67
2021/06/04 04:02:17;;;;;;;12.15;6.93;;;17.70;31.50;;;;;;5021041;28;20578;-64
2021/06/04 04:05:07;;;;;;;7.72;6.45;;;17.70;31.80;;;;;;5024267;28;20120;-66
2021/06/04 04:07:56;;;;;;;8.90;6.53;;;17.80;31.00;;;;;;5025303;28;20132;-64
2021/06/04 04:10:44;;;;;;;7.95;6.45;;;18.00;29.20;;;;;;5026221;28;20092;-66
2021/06/04 04:13:32;;;;;;;9.25;6.75;;;18.00;28.80;;;;;;5022825;28;20041;-66
2021/06/04 04:16:20;;;;;;;6.43;5.70;;;18.10;28.30;;;;;;5025801;28;20146;-65
2021/06/04 04:19:10;;;;;;;6.75;5.82;;;18.10;28.90;;;;;;5025806;28;20057;-65
2021/06/04 04:22:05;;;;;;;6.53;5.88;;;18.50;25.80;;;;;;5020551;28;20044;-66
2021/06/04 04:24:57;;;;;;;9.03;6.77;;;18.30;26.70;;;;;;5026329;28;20041;-66
2021/06/04 04:27:44;;;;;;;9.48;6.55;;;18.10;25.70;;;;;;5025697;28;20284;-66
2021/06/04 04:30:33;;;;;;;7.68;6.07;;;18.40;23.10;;;;;;5024200;28;20095;-66
2021/06/04 04:33:24;;;;;;;8.52;6.30;;;18.50;23.50;;;;;;5019878;28;20041;-65
2021/06/04 04:36:16;;;;;;;9.15;6.82;;;18.70;21.80;;;;;;5011182;28;20648;-65
2021/06/04 04:39:06;;;;;;;10.32;6.60;;;18.60;23.80;;;;;;5025709;28;20417;-64
2021/06/04 04:41:55;;;;;;;8.23;6.28;;;18.70;23.40;;;;;;5021350;28;20191;-65
2021/06/04 04:44:45;;;;;;;10.98;7.13;;;18.90;21.70;;;;;;5025446;28;20045;-65
2021/06/04 04:47:32;;;;;;;7.18;6.47;;;19.10;20.60;;;;;;5024448;28;20057;-65
2021/06/04 04:50:25;;;;;;;8.95;6.75;;;19.10;18.70;;;;;;5010962;28;20097;-65
2021/06/04 04:53:15;;;;;;;8.05;6.88;;;19.10;19.60;;;;;;5005441;28;20515;-66
2021/06/04 04:56:04;;;;;;;7.35;6.50;;;19.00;19.60;;;;;;5023255;28;20048;-66
2021/06/04 04:58:52;;;;;;;9.00;7.03;;;19.20;19.80;;;;;;5027972;28;20060;-66
2021/06/04 05:01:40;;;;;;;10.10;7.40;;;19.00;20.30;;;;;;5021972;28;20053;-66
2021/06/04 05:04:29;;;;;;;10.35;7.55;;;19.00;18.80;;;;;;5025883;28;20412;-66
2021/06/04 05:07:18;;;;;;;8.70;7.25;;;18.90;21.60;;;;;;5024911;28;20065;-64
2021/06/04 05:10:09;;;;;;;6.50;5.75;;;19.00;21.20;;;;;;5024748;28;20145;-65
2021/06/04 05:12:57;;;;;;;9.00;6.65;;;19.10;21.20;;;;;;5021047;28;20180;-65
2021/06/04 05:15:46;;;;;;;9.43;6.88;;;19.10;20.70;;;;;;5025948;28;20057;-65
2021/06/04 05:18:37;;;;;;;8.48;6.38;;;19.00;21.90;;;;;;5023991;28;20452;-65
2021/06/04 05:21:26;;;;;;;13.88;6.95;;;18.90;21.60;;;;;;5019726;28;20068;-66
2021/06/04 05:24:14;;;;;;;8.25;6.45;;;19.00;20.00;;;;;;5022966;28;20047;-66
2021/06/04 05:27:04;;;;;;;9.00;6.07;;;18.70;20.30;;;;;;5026956;28;20059;-66
2021/06/04 05:29:52;;;;;;;9.55;6.47;;;18.90;19.20;;;;;;5024344;28;20057;-66
2021/06/04 05:32:40;;;;;;;8.65;6.65;;;18.50;20.30;;;;;;5019233;28;20159;-66
2021/06/04 05:35:30;;;;;;;10.07;6.85;;;18.70;21.00;;;;;;5024463;28;20061;-67
2021/06/04 05:38:18;;;;;;;10.55;6.97;;;18.70;20.70;;;;;;5025425;28;20053;-66
2021/06/04 05:41:07;;;;;;;10.43;6.32;;;18.60;20.90;;;;;;5026495;28;20057;-63
2021/06/04 05:43:57;;;;;;;9.45;6.53;;;18.60;24.40;;;;;;5024577;28;20123;-66
2021/06/04 05:46:46;;;;;;;7.28;6.47;;;18.60;27.00;;;;;;5024791;28;20406;-66
2021/06/04 05:49:36;;;;;;;10.20;6.97;;;18.70;25.20;;;;;;5028028;28;20108;-65
2021/06/04 05:52:24;;;;;;;9.52;7.25;;;18.60;26.80;;;;;;5023197;28;20085;-66
2021/06/04 05:55:15;;;;;;;7.90;6.72;;;18.60;28.90;;;;;;5013818;28;20096;-66
2021/06/04 05:58:04;;;;;;;10.65;7.20;;;18.40;30.30;;;;;;5029028;28;20523;-66
2021/06/04 06:00:57;;;;;;;18.38;7.88;;;18.40;33.00;;;;;;5010775;28;20053;-65
2021/06/04 06:03:45;;;;;;;8.18;7.07;;;18.50;32.00;;;;;;5009486;28;20050;-66
2021/06/04 06:06:33;;;;;;;11.95;8.23;;;18.70;32.30;;;;;;5029406;28;20520;-64
2021/06/04 06:09:22;;;;;;;8.73;7.10;;;18.70;30.10;;;;;;5026491;28;20060;-66
2021/06/04 06:12:12;;;;;;;9.27;6.80;;;18.80;32.70;;;;;;5024162;28;20457;-65
2021/06/04 06:15:01;;;;;;;9.18;7.18;;;18.80;29.50;;;;;;5026915;28;20053;-65
2021/06/04 06:17:51;;;;;;;11.63;7.53;;;18.90;29.30;;;;;;5026823;28;20424;-66
2021/06/04 06:20:43;;;;;;;9.88;7.40;;;18.70;29.80;;;;;;5029974;28;20132;-64
2021/06/04 06:23:33;;;;;;;8.50;7.40;;;19.00;32.10;;;;;;5025804;28;20161;-65
2021/06/04 06:26:24;;;;;;;9.30;7.57;;;18.80;28.10;;;;;;5012591;28;20200;-65
2021/06/04 06:29:16;;;;;;;11.30;7.07;;;18.80;29.60;;;;;;5026913;28;20049;-65
2021/06/04 06:32:05;;;;;;;10.85;8.10;;;19.10;27.90;;;;;;5021007;28;20627;-65
2021/06/04 06:34:54;;;;;;;12.40;8.70;;;19.20;25.20;;;;;;5013214;28;20504;-65
2021/06/04 06:37:42;;;;;;;11.93;7.82;;;19.10;25.00;;;;;;5027190;28;20104;-66
2021/06/04 06:40:30;;;;;;;14.88;8.40;;;19.00;24.60;;;;;;5026529;28;20515;-65
2021/06/04 06:43:19;;;;;;;14.52;6.97;;;19.20;24.90;;;;;;5016330;28;20091;-66
2021/06/04 06:46:09;;;;;;;13.82;7.65;;;19.50;22.30;;;;;;5029848;28;20096;-64
2021/06/04 06:48:59;;;;;;;10.85;7.13;;;19.60;21.00;;;;;;5026675;28;20124;-66
2021/06/04 06:51:49;;;;;;;8.43;6.53;;;19.50;21.50;;;;;;5024981;28;20054;-66
2021/06/04 06:54:39;;;;;;;7.43;6.72;;;19.80;20.70;;;;;;5027202;28;20046;-66
2021/06/04 06:57:27;;;;;;;8.45;6.72;;;19.60;20.10;;;;;;5025553;28;20516;-65
2021/06/04 07:00:20;;;;;;;9.50;7.30;;;19.70;21.30;;;;;;5027401;28;20072;-65
2021/06/04 07:03:11;;;;;;;8.45;6.63;;;19.80;20.50;;;;;;5008522;28;20297;-66
2021/06/04 07:06:01;;;;;;;9.13;7.32;;;19.80;20.90;;;;;;5010550;28;20543;-64
2021/06/04 07:08:51;;;;;;;10.90;7.10;;;19.70;20.20;;;;;;5025611;28;20064;-66
2021/06/04 07:11:42;;;;;;;11.88;8.30;;;19.70;21.70;;;;;;5022038;28;20055;-66
2021/06/04 07:14:33;;;;;;;9.60;6.60;;;19.90;19.10;;;;;;5026206;28;20526;-65
2021/06/04 07:17:23;;;;;;;8.80;7.25;;;20.30;18.40;;;;;;5026833;28;20504;-65
2021/06/04 07:20:15;;;;;;;7.40;6.65;;;20.00;18.30;;;;;;5025594;28;20064;-65
2021/06/04 07:23:06;;;;;;;8.27;6.43;;;20.00;20.40;;;;;;5021638;28;20033;-65
2021/06/04 07:25:55;;;;;;;11.60;8.00;;;20.10;19.10;;;;;;5026424;28;20048;-65
2021/06/04 07:28:44;;;;;;;8.40;6.88;;;20.10;22.50;;;;;;5027523;28;20041;-65
2021/06/04 07:31:32;;;;;;;15.68;11.32;;;20.10;21.60;;;;;;5024829;28;20107;-65
2021/06/04 07:34:21;;;;;;;21.67;12.23;;;20.10;21.20;;;;;;5025404;28;20150;-65
2021/06/04 07:37:11;;;;;;;11.30;6.78;;;20.20;20.20;;;;;;5026639;28;20503;-65
2021/06/04 07:39:59;;;;;;;11.27;6.85;;;20.20;19.60;;;;;;5023896;28;20053;-64
2021/06/04 07:42:51;;;;;;;7.10;6.20;;;20.20;22.00;;;;;;5021524;28;20068;-65
2021/06/04 07:45:41;;;;;;;10.50;6.25;;;20.20;20.10;;;;;;5026830;28;20044;-66
2021/06/04 07:48:29;;;;;;;9.25;7.15;;;20.20;22.00;;;;;;5026198;28;20061;-66
2021/06/04 07:51:20;;;;;;;9.85;7.50;;;20.40;21.40;;;;;;5026241;28;20077;-65
2021/06/04 07:54:09;;;;;;;9.88;6.30;;;20.70;21.40;;;;;;5025801;28;20444;-64
2021/06/04 07:56:59;;;;;;;11.48;8.13;;;20.80;18.80;;;;;;5025081;28;20052;-65
2021/06/04 07:59:48;;;;;;;9.35;7.35;;;20.80;17.00;;;;;;5010909;28;20042;-65
2021/06/04 08:02:36;;;;;;;10.00;7.80;;;20.60;18.70;;;;;;5021918;28;20049;-65
2021/06/04 08:05:25;;;;;;;10.02;7.82;;;21.00;15.90;;;;;;5021546;28;20552;-65
2021/06/04 08:08:13;;;;;;;8.68;7.05;;;20.90;15.90;;;;;;5026179;28;20071;-65
2021/06/04 08:11:03;;;;;;;9.98;8.13;;;21.30;15.50;;;;;;5025427;28;20049;-66
2021/06/04 08:13:51;;;;;;;11.48;8.48;;;21.20;15.40;;;;;;5021848;28;20100;-65
2021/06/04 08:16:42;;;;;;;10.23;8.23;;;20.90;17.50;;;;;;5023914;28;20056;-64
2021/06/04 08:19:33;;;;;;;13.77;7.95;;;20.80;16.30;;;;;;5009327;28;20216;-65
2021/06/04 08:22:21;;;;;;;9.60;7.18;;;21.30;15.50;;;;;;5008535;28;20163;-66
2021/06/04 08:25:13;;;;;;;12.15;7.63;;;21.70;11.40;;;;;;5022841;28;20053;-65
2021/06/04 08:28:01;;;;;;;11.30;7.00;;;21.90;11.50;;;;;;5024422;28;20587;-65
2021/06/04 08:30:49;;;;;;;7.97;6.53;;;22.20;10.60;;;;;;5022699;28;20560;-65
2021/06/04 08:33:41;;;;;;;8.50;6.50;;;22.80;5.90;;;;;;5020265;28;20060;-65
2021/06/04 08:36:34;;;;;;;10.18;6.95;;;23.30;2.80;;;;;;5018749;28;20076;-66
2021/06/04 08:39:28;;;;;;;11.23;7.63;;;22.80;4.20;;;;;;5011578;28;20078;-65
2021/06/04 08:42:37;;;;;;;9.60;6.20;;;22.80;4.90;;;;;;5020076;28;20050;-65
2021/06/04 08:45:32;;;;;;;6.78;6.10;;;22.80;3.50;;;;;;5023665;28;20075;-65
2021/06/04 08:48:42;;;;;;;5.80;5.28;;;22.80;3.40;;;;;;5010492;28;20065;-65
2021/06/04 08:51:35;;;;;;;6.05;5.40;;;22.80;1.30;;;;;;5026389;28;20271;-65
2021/06/04 08:54:30;;;;;;;6.93;5.65;;;22.60;1.20;;;;;;5023511;28;20116;-64
2021/06/04 08:57:36;;;;;;;7.18;4.78;;;22.50;2.30;;;;;;5007699;28;20057;-65
2021/06/04 09:00:27;;;;;;;6.07;4.85;;;23.00;1.00;;;;;;5025621;28;20068;-66
2021/06/04 09:03:22;;;;;;;8.18;4.75;;;23.00;1.00;;;;;;5021370;28;20053;-65
2021/06/04 09:06:14;;;;;;;8.60;4.93;;;23.70;1.00;;;;;;5027218;28;20068;-65
2021/06/04 09:09:08;;;;;;;5.80;4.38;;;23.70;1.00;;;;;;5023858;28;20052;-65
2021/06/04 09:11:59;;;;;;;5.72;4.65;;;23.60;1.00;;;;;;5021997;28;20519;-65
2021/06/04 09:14:49;;;;;;;5.25;4.13;;;23.50;1.00;;;;;;5025639;28;20045;-66
2021/06/04 09:17:44;;;;;;;6.20;4.60;;;24.30;1.00;;;;;;5025275;28;20052;-65
2021/06/04 09:20:38;;;;;;;5.03;4.53;;;23.70;1.00;;;;;;5023767;28;20080;-65
2021/06/04 09:23:31;;;;;;;5.63;4.00;;;24.00;1.00;;;;;;5022502;28;20492;-65
2021/06/04 09:26:21;;;;;;;5.75;3.50;;;24.70;1.00;;;;;;5013768;28;20392;-66
2021/06/04 09:29:19;;;;;;;5.38;4.20;;;24.60;1.00;;;;;;5033383;28;20053;-66
2021/06/04 09:32:20;;;;;;;7.10;4.07;;;24.80;1.00;;;;;;5024855;28;20066;-65
2021/06/04 09:35:13;;;;;;;4.97;3.55;;;24.20;1.00;;;;;;5029127;28;20575;-66
2021/06/04 09:38:14;;;;;;;3.55;3.20;;;24.80;1.00;;;;;;5027532;28;20469;-65
2021/06/04 09:41:34;;;;;;;4.38;3.05;;;24.60;1.00;;;;;;5029897;28;20451;-65
2021/06/04 09:44:28;;;;;;;5.18;3.10;;;24.90;1.00;;;;;;5029365;28;20033;-65
2021/06/04 09:47:27;;;;;;;3.80;2.70;;;24.60;1.00;;;;;;5012414;28;20567;-65
2021/06/04 09:50:20;;;;;;;9.07;4.45;;;25.10;1.00;;;;;;5027411;28;20499;-66
2021/06/04 09:53:13;;;;;;;5.43;4.20;;;24.30;1.00;;;;;;5024412;28;20080;-65
2021/06/04 09:56:26;;;;;;;7.40;3.90;;;24.20;1.00;;;;;;5028421;28;20042;-65
2021/06/04 09:59:21;;;;;;;7.93;4.25;;;24.40;1.00;;;;;;5028257;28;20492;-66
2021/06/04 10:02:32;;;;;;;4.68;4.13;;;24.60;1.00;;;;;;5023909;28;20049;-65
2021/06/04 10:05:28;;;;;;;4.75;3.53;;;24.70;1.00;;;;;;5025639;28;20065;-65
2021/06/04 10:08:25;;;;;;;6.28;3.63;;;24.80;1.00;;;;;;5026294;28;20053;-65
2021/06/04 10:11:16;;;;;;;4.72;3.42;;;24.80;1.00;;;;;;5028169;28;20053;-65
2021/06/04 10:14:13;;;;;;;4.03;3.45;;;25.10;1.00;;;;;;5024493;28;20536;-65
2021/06/04 10:17:25;;;;;;;4.47;3.05;;;25.20;1.00;;;;;;5029205;28;20140;-65
2021/06/04 10:20:39;;;;;;;4.53;2.70;;;25.10;1.00;;;;;;5029316;28;20045;-66
2021/06/04 10:23:40;;;;;;;5.82;2.60;;;25.00;1.00;;;;;;5021114;28;20168;-65
2021/06/04 10:26:32;;;;;;;8.25;2.92;;;25.50;1.00;;;;;;5029050;28;20041;-64
2021/06/04 10:29:20;;;;;;;4.93;2.70;;;25.30;1.00;;;;;;5026936;28;20092;-65
2021/06/04 10:32:15;;;;;;;4.85;3.00;;;25.30;1.00;;;;;;5014565;28;20080;-65
2021/06/04 10:35:12;;;;;;;5.45;3.10;;;25.30;1.00;;;;;;5011925;28;20033;-64
2021/06/04 10:38:03;;;;;;;5.68;3.03;;;25.30;1.00;;;;;;5027357;28;20127;-65
2021/06/04 10:40:57;;;;;;;4.13;2.50;;;25.30;1.00;;;;;;5001053;28;20096;-66
2021/06/04 10:43:57;;;;;;;4.30;2.88;;;25.30;1.00;;;;;;5018823;28;20049;-66
2021/06/04 10:46:53;;;;;;;3.58;2.58;;;25.60;1.00;;;;;;5011758;28;20073;-66
2021/06/04 10:49:57;;;;;;;4.18;2.70;;;25.80;1.00;;;;;;5027129;28;20116;-66
2021/06/04 10:53:00;;;;;;;3.25;2.95;;;26.30;1.00;;;;;;5021268;28;20124;-65
2021/06/04 10:55:59;;;;;;;3.13;2.80;;;26.10;1.00;;;;;;5024950;28;20048;-66
2021/06/04 10:58:56;;;;;;;5.03;2.92;;;26.60;1.00;;;;;;5012881;28;20322;-65
2021/06/04 11:01:51;;;;;;;4.40;2.95;;;26.00;1.00;;;;;;5026654;28;20549;-64
2021/06/04 11:04:51;;;;;;;6.13;3.17;;;26.30;1.00;;;;;;4997614;28;20100;-66
2021/06/04 11:07:49;;;;;;;4.10;3.13;;;26.00;1.00;;;;;;5014295;28;20132;-65
2021/06/04 11:10:46;;;;;;;3.78;3.05;;;26.30;1.00;;;;;;5026955;28;20148;-66
2021/06/04 11:13:51;;;;;;;9.63;3.50;;;26.40;1.00;;;;;;5012583;28;20060;-66
2021/06/04 11:16:45;;;;;;;3.80;2.92;;;26.20;1.00;;;;;;5019458;28;20060;-66
2021/06/04 11:19:36;;;;;;;4.70;3.08;;;26.30;1.00;;;;;;5027294;28;20095;-66
2021/06/04 11:22:37;;;;;;;5.75;3.92;;;25.80;1.00;;;;;;5018821;28;20054;-66
2021/06/04 11:25:35;;;;;;;6.10;3.95;;;25.50;1.00;;;;;;5023617;28;20527;-65
2021/06/04 11:28:41;;;;;;;3.65;3.20;;;25.60;1.00;;;;;;5023453;28;20049;-65
2021/06/04 11:31:41;;;;;;;4.90;3.35;;;25.50;1.00;;;;;;5021993;28;20535;-65
2021/06/04 11:34:41;;;;;;;5.35;3.72;;;25.60;1.00;;;;;;5024182;28;20195;-64
2021/06/04 11:37:46;;;;;;;5.55;3.38;;;25.60;1.00;;;;;;5024868;28;20048;-65
2021/06/04 11:40:38;;;;;;;6.25;3.88;;;25.70;1.00;;;;;;5026426;28;20057;-65
2021/06/04 11:43:30;;;;;;;6.68;3.67;;;25.70;1.00;;;;;;5018622;28;20593;-65
2021/06/04 11:46:27;;;;;;;4.45;3.22;;;25.70;1.00;;;;;;5007976;28;20077;-67
2021/06/04 11:49:17;;;;;;;5.80;3.83;;;25.80;1.00;;;;;;5025646;28;20738;-65
2021/06/04 11:52:20;;;;;;;6.60;3.80;;;25.80;1.00;;;;;;5022104;28;20069;-66
2021/06/04 11:55:13;;;;;;;10.77;8.32;;;25.70;1.00;;;;;;5010268;28;20146;-65
2021/06/04 11:58:03;;;;;;;4.82;3.33;;;25.50;1.00;;;;;;4985264;28;20054;-65
2021/06/04 12:00:54;;;;;;;4.22;3.58;;;25.40;1.00;;;;;;4998657;28;20117;-65
2021/06/04 12:03:47;;;;;;;3.85;2.80;;;25.00;1.00;;;;;;4996230;28;20052;-65
2021/06/04 12:07:23;;;;;;;5.03;3.20;;;24.90;1.00;;;;;;5000975;28;20145;-65
2021/06/04 12:10:34;;;;;;;11.02;3.53;;;23.70;1.00;;;;;;4986225;28;20235;-66
2021/06/04 12:13:31;;;;;;;3.80;2.30;;;23.20;1.00;;;;;;4993998;28;20049;-65
2021/06/04 12:16:30;;;;;;;8.57;2.03;;;22.90;1.00;;;;;;4998697;28;20397;-65
2021/06/04 12:19:43;;;;;;;2.50;1.83;;;22.80;1.00;;;;;;4997510;28;20046;-65
2021/06/04 12:22:36;;;;;;;3.17;2.33;;;22.80;1.00;;;;;;4987118;28;20053;-65
2021/06/04 12:25:46;;;;;;;8.95;2.53;;;22.80;1.00;;;;;;4999569;28;20049;-66
2021/06/04 12:28:38;;;;;;;7.70;3.47;;;22.60;1.00;;;;;;4971554;28;20046;-65
2021/06/04 12:31:47;;;;;;;4.38;2.92;;;22.60;1.00;;;;;;4999106;28;20409;-64
2021/06/04 12:34:58;;;;;;;6.55;3.00;;;22.60;1.00;;;;;;4998581;28;20054;-65
2021/06/04 12:37:47;;;;;;;5.35;2.90;;;22.20;1.00;;;;;;4999156;28;20046;-65
2021/06/04 12:40:35;;;;;;;3.75;2.72;;;22.10;1.00;;;;;;4999635;28;20501;-64
2021/06/04 12:43:28;;;;;;;24.48;18.48;;;22.40;1.00;;;;;;4994198;28;20516;-64
2021/06/04 12:46:19;;;;;;;7.75;2.88;;;22.40;1.00;;;;;;4999846;28;20049;-65
2021/06/04 12:49:13;;;;;;;6.30;2.55;;;22.30;1.00;;;;;;4996697;28;20093;-65
2021/06/04 12:52:01;;;;;;;6.15;2.45;;;22.10;1.00;;;;;;4978310;28;20058;-65
2021/06/04 12:54:50;;;;;;;5.50;2.65;;;22.20;1.00;;;;;;4985019;28;20053;-65
2021/06/04 12:57:38;;;;;;;10.45;2.90;;;22.20;1.00;;;;;;4988823;28;20797;-65
2021/06/04 13:00:31;;;;;;;3.90;2.63;;;21.70;1.00;;;;;;5005209;28;20108;-65
2021/06/04 13:03:27;;;;;;;6.63;2.47;;;21.70;1.00;;;;;;4999360;28;20528;-66
2021/06/04 13:06:21;;;;;;;6.38;2.80;;;21.50;1.00;;;;;;5005718;28;20049;-66
2021/06/04 13:09:23;;;;;;;21.35;4.18;;;21.50;1.00;;;;;;5004188;28;20057;-65
2021/06/04 13:12:23;;;;;;;12.15;3.38;;;21.60;1.00;;;;;;5010384;28;20160;-65
2021/06/04 13:15:16;;;;;;;7.43;3.05;;;21.80;1.00;;;;;;5006288;28;20788;-65
2021/06/04 13:18:08;;;;;;;9.93;3.13;;;21.60;1.00;;;;;;4988944;28;20151;-65
2021/06/04 13:21:14;;;;;;;8.68;3.55;;;21.90;1.00;;;;;;5000617;28;20712;-66
2021/06/04 13:24:07;;;;;;;5.35;3.45;;;21.80;1.00;;;;;;4999931;28;20050;-65
2021/06/04 13:26:57;;;;;;;7.82;3.70;;;22.10;1.00;;;;;;5004284;28;20180;-66
2021/06/04 13:29:53;;;;;;;16.55;3.95;;;22.00;1.00;;;;;;5005798;28;20557;-66
2021/06/04 13:32:47;;;;;;;9.80;3.65;;;22.30;1.00;;;;;;4998965;28;20054;-64
2021/06/04 13:35:39;;;;;;;6.18;3.75;;;22.20;1.00;;;;;;5003693;28;20046;-65
2021/06/04 13:38:32;;;;;;;7.30;3.67;;;22.20;1.00;;;;;;5005344;28;20048;-65
2021/06/04 13:41:28;;;;;;;6.40;3.15;;;22.30;1.00;;;;;;5003894;28;20805;-65
2021/06/04 13:44:19;;;;;;;4.35;2.85;;;22.10;1.00;;;;;;5002136;28;20202;-64
2021/06/04 13:47:09;;;;;;;5.75;3.38;;;22.10;1.00;;;;;;5003647;28;20069;-65
2021/06/04 13:50:16;;;;;;;5.25;2.95;;;22.20;1.00;;;;;;5002771;28;20144;-66
2021/06/04 13:53:26;;;;;;;4.93;3.25;;;22.40;1.00;;;;;;4999154;28;20794;-64
2021/06/04 13:56:27;;;;;;;5.47;2.95;;;22.40;1.00;;;;;;5006081;28;20129;-65
2021/06/04 13:59:28;;;;;;;6.47;2.60;;;22.40;1.00;;;;;;5004852;28;20558;-65
2021/06/04 14:02:29;;;;;;;6.00;3.08;;;22.60;1.00;;;;;;5000589;28;20386;-65
2021/06/04 14:05:27;;;;;;;5.70;3.30;;;22.80;1.00;;;;;;4991216;28;20045;-65
2021/06/04 14:08:22;;;;;;;8.98;3.58;;;22.80;1.00;;;;;;4987185;28;20054;-65
2021/06/04 14:11:17;;;;;;;7.78;2.85;;;22.90;1.00;;;;;;4999568;28;20042;-64
2021/06/04 14:14:10;;;;;;;4.13;3.25;;;22.80;1.00;;;;;;4996712;28;20151;-64
2021/06/04 14:16:58;;;;;;;13.70;3.60;;;22.70;1.00;;;;;;5013768;28;20452;-66
2021/06/04 14:19:51;;;;;;;6.22;3.78;;;22.90;1.00;;;;;;5002761;28;20428;-65
2021/06/04 14:22:42;;;;;;;7.10;3.72;;;22.60;1.20;;;;;;4996465;28;20057;-64
2021/06/04 14:25:33;;;;;;;11.50;4.68;;;22.90;1.00;;;;;;5000716;28;20133;-65
2021/06/04 14:28:23;;;;;;;6.65;4.00;;;23.00;1.00;;;;;;5000785;28;20189;-65
2021/06/04 14:31:11;;;;;;;6.93;3.80;;;22.70;1.00;;;;;;5001880;28;20057;-66
2021/06/04 14:33:59;;;;;;;11.43;4.60;;;22.80;1.00;;;;;;4984604;28;20050;-65
2021/06/04 14:36:48;;;;;;;8.57;4.80;;;22.80;1.30;;;;;;5000506;28;20050;-66
2021/06/04 14:39:39;;;;;;;6.90;4.13;;;22.80;1.50;;;;;;5002622;28;20053;-64
2021/06/04 14:42:28;;;;;;;11.73;4.43;;;22.70;1.80;;;;;;4995841;28;20057;-64
2021/06/04 14:45:17;;;;;;;8.73;4.30;;;22.70;1.90;;;;;;5002831;28;20049;-64
2021/06/04 14:48:07;;;;;;;7.22;4.55;;;22.90;1.00;;;;;;4972444;28;20049;-65
2021/06/04 14:50:58;;;;;;;8.75;4.38;;;22.60;1.50;;;;;;5001361;28;20053;-65
2021/06/04 14:53:47;;;;;;;14.20;4.68;;;22.60;2.40;;;;;;4984049;28;20056;-66
2021/06/04 14:56:35;;;;;;;6.68;4.75;;;22.90;1.40;;;;;;5001431;28;20046;-64
2021/06/04 14:59:29;;;;;;;9.27;5.18;;;22.70;4.70;;;;;;5000627;28;20038;-65
2021/06/04 15:02:21;;;;;;;8.48;4.75;;;22.60;9.90;;;;;;4994882;28;20713;-66
2021/06/04 15:05:13;;;;;;;7.90;4.85;;;22.60;12.30;;;;;;5000533;28;20057;-66